sensor_id;sensor_type;location;lat;lon;timestamp;P1;durP1;ratioP1;P2;durP2;ratioP2
58384;SDS011;44185;47.844;8.966;2022-12-18T00:00:22;26.00;;;12.17;;
58384;SDS011;44185;47.844;8.966;2022-12-18T00:02:47;31.57;;;13.77;;
58384;SDS011;44185;47.844;8.966;2022-12-18T00:05:13;30.00;;;9.57;;
58384;SDS011;44185;47.844;8.966;2022-12-18T00:07:38;34.50;;;14.87;;
58384;SDS011;44185;47.844;8.966;2022-12-18T00:10:04;23.00;;;11.17;;
58384;SDS011;44185;47.844;8.966;2022-12-18T00:12:30;13.90;;;7.20;;
58384;SDS011;44185;47.844;8.966;2022-12-18T00:14:56;32.80;;;11.73;;
58384;SDS011;44185;47.844;8.966;2022-12-18T00:17:22;29.53;;;15.30;;
58384;SDS011;44185;47.844;8.966;2022-12-18T00:19:48;23.87;;;12.07;;
58384;SDS011;44185;47.844;8.966;2022-12-18T00:22:17;32.27;;;11.73;;
58384;SDS011;44185;47.844;8.966;2022-12-18T00:24:42;36.83;;;14.87;;
58384;SDS011;44185;47.844;8.966;2022-12-18T00:27:08;38.93;;;15.57;;
58384;SDS011;44185;47.844;8.966;2022-12-18T00:29:33;36.27;;;14.67;;
58384;SDS011;44185;47.844;8.966;2022-12-18T00:31:59;22.33;;;10.33;;
58384;SDS011;44185;47.844;8.966;2022-12-18T00:34:26;37.73;;;12.67;;
58384;SDS011;44185;47.844;8.966;2022-12-18T00:36:51;35.47;;;16.23;;
58384;SDS011;44185;47.844;8.966;2022-12-18T00:39:16;18.23;;;9.67;;
58384;SDS011;44185;47.844;8.966;2022-12-18T00:41:42;19.77;;;10.65;;
58384;SDS011;44185;47.844;8.966;2022-12-18T00:44:09;23.23;;;11.87;;
58384;SDS011;44185;47.844;8.966;2022-12-18T00:46:35;39.97;;;16.00;;
58384;SDS011;44185;47.844;8.966;2022-12-18T00:49:00;27.23;;;12.63;;
58384;SDS011;44185;47.844;8.966;2022-12-18T00:51:27;23.53;;;10.90;;
58384;SDS011;44185;47.844;8.966;2022-12-18T00:53:53;22.43;;;14.17;;
58384;SDS011;44185;47.844;8.966;2022-12-18T00:56:21;22.03;;;11.40;;
58384;SDS011;44185;47.844;8.966;2022-12-18T00:58:48;25.73;;;10.93;;
58384;SDS011;44185;47.844;8.966;2022-12-18T01:01:13;34.97;;;14.37;;
58384;SDS011;44185;47.844;8.966;2022-12-18T01:03:39;24.37;;;10.67;;
58384;SDS011;44185;47.844;8.966;2022-12-18T01:06:05;27.13;;;10.83;;
58384;SDS011;44185;47.844;8.966;2022-12-18T01:08:32;33.07;;;13.70;;
58384;SDS011;44185;47.844;8.966;2022-12-18T01:10:58;35.87;;;14.47;;
58384;SDS011;44185;47.844;8.966;2022-12-18T01:13:23;48.73;;;17.77;;
58384;SDS011;44185;47.844;8.966;2022-12-18T01:15:49;37.40;;;14.27;;
58384;SDS011;44185;47.844;8.966;2022-12-18T01:18:15;28.87;;;11.27;;
58384;SDS011;44185;47.844;8.966;2022-12-18T01:20:41;27.87;;;14.60;;
58384;SDS011;44185;47.844;8.966;2022-12-18T01:23:06;29.20;;;14.13;;
58384;SDS011;44185;47.844;8.966;2022-12-18T01:25:33;24.97;;;12.97;;
58384;SDS011;44185;47.844;8.966;2022-12-18T01:28:00;29.23;;;11.40;;
58384;SDS011;44185;47.844;8.966;2022-12-18T01:30:26;30.93;;;12.60;;
58384;SDS011;44185;47.844;8.966;2022-12-18T01:32:51;44.40;;;16.40;;
58384;SDS011;44185;47.844;8.966;2022-12-18T01:35:17;37.97;;;16.23;;
58384;SDS011;44185;47.844;8.966;2022-12-18T01:37:42;33.90;;;14.50;;
58384;SDS011;44185;47.844;8.966;2022-12-18T01:40:08;30.73;;;12.47;;
58384;SDS011;44185;47.844;8.966;2022-12-18T01:42:35;34.17;;;13.43;;
58384;SDS011;44185;47.844;8.966;2022-12-18T01:45:03;40.73;;;17.07;;
58384;SDS011;44185;47.844;8.966;2022-12-18T01:47:32;35.50;;;14.18;;
58384;SDS011;44185;47.844;8.966;2022-12-18T01:50:03;29.37;;;13.33;;
58384;SDS011;44185;47.844;8.966;2022-12-18T01:52:31;31.52;;;14.40;;
58384;SDS011;44185;47.844;8.966;2022-12-18T01:54:57;21.87;;;10.33;;
58384;SDS011;44185;47.844;8.966;2022-12-18T01:57:24;41.47;;;16.97;;
58384;SDS011;44185;47.844;8.966;2022-12-18T01:59:53;40.53;;;17.17;;
58384;SDS011;44185;47.844;8.966;2022-12-18T02:02:22;28.90;;;13.30;;
58384;SDS011;44185;47.844;8.966;2022-12-18T02:04:47;32.17;;;12.10;;
58384;SDS011;44185;47.844;8.966;2022-12-18T02:07:16;25.50;;;12.10;;
58384;SDS011;44185;47.844;8.966;2022-12-18T02:09:48;43.30;;;14.83;;
58384;SDS011;44185;47.844;8.966;2022-12-18T02:12:20;33.43;;;14.97;;
58384;SDS011;44185;47.844;8.966;2022-12-18T02:14:49;33.17;;;11.53;;
58384;SDS011;44185;47.844;8.966;2022-12-18T02:17:25;34.93;;;14.50;;
58384;SDS011;44185;47.844;8.966;2022-12-18T02:20:02;27.03;;;9.60;;
58384;SDS011;44185;47.844;8.966;2022-12-18T02:22:39;28.27;;;12.53;;
58384;SDS011;44185;47.844;8.966;2022-12-18T02:25:18;38.17;;;15.30;;
58384;SDS011;44185;47.844;8.966;2022-12-18T02:27:57;32.57;;;13.17;;
58384;SDS011;44185;47.844;8.966;2022-12-18T02:30:25;34.53;;;12.88;;
58384;SDS011;44185;47.844;8.966;2022-12-18T02:32:52;23.40;;;10.63;;
58384;SDS011;44185;47.844;8.966;2022-12-18T02:35:20;35.77;;;12.90;;
58384;SDS011;44185;47.844;8.966;2022-12-18T02:37:49;22.65;;;9.63;;
58384;SDS011;44185;47.844;8.966;2022-12-18T02:40:19;28.93;;;13.57;;
58384;SDS011;44185;47.844;8.966;2022-12-18T02:42:47;31.90;;;12.10;;
58384;SDS011;44185;47.844;8.966;2022-12-18T02:45:13;30.57;;;12.40;;
58384;SDS011;44185;47.844;8.966;2022-12-18T02:47:40;36.73;;;16.10;;
58384;SDS011;44185;47.844;8.966;2022-12-18T02:50:10;38.90;;;14.05;;
58384;SDS011;44185;47.844;8.966;2022-12-18T02:52:45;31.60;;;13.40;;
58384;SDS011;44185;47.844;8.966;2022-12-18T02:55:26;35.80;;;12.03;;
58384;SDS011;44185;47.844;8.966;2022-12-18T02:58:03;35.50;;;12.23;;
58384;SDS011;44185;47.844;8.966;2022-12-18T03:00:33;36.23;;;13.87;;
58384;SDS011;44185;47.844;8.966;2022-12-18T03:03:03;38.50;;;13.90;;
58384;SDS011;44185;47.844;8.966;2022-12-18T03:05:33;35.33;;;13.65;;
58384;SDS011;44185;47.844;8.966;2022-12-18T03:08:05;34.50;;;14.97;;
58384;SDS011;44185;47.844;8.966;2022-12-18T03:10:34;28.42;;;11.18;;
58384;SDS011;44185;47.844;8.966;2022-12-18T03:13:06;36.20;;;13.43;;
58384;SDS011;44185;47.844;8.966;2022-12-18T03:15:37;37.33;;;15.47;;
58384;SDS011;44185;47.844;8.966;2022-12-18T03:18:08;35.07;;;14.33;;
58384;SDS011;44185;47.844;8.966;2022-12-18T03:20:37;35.17;;;13.57;;
58384;SDS011;44185;47.844;8.966;2022-12-18T03:23:09;37.20;;;13.38;;
58384;SDS011;44185;47.844;8.966;2022-12-18T03:25:39;29.27;;;11.77;;
58384;SDS011;44185;47.844;8.966;2022-12-18T03:28:07;33.30;;;13.00;;
58384;SDS011;44185;47.844;8.966;2022-12-18T03:30:37;38.10;;;14.13;;
58384;SDS011;44185;47.844;8.966;2022-12-18T03:33:05;32.33;;;12.32;;
58384;SDS011;44185;47.844;8.966;2022-12-18T03:35:36;30.77;;;11.93;;
58384;SDS011;44185;47.844;8.966;2022-12-18T03:38:04;42.38;;;13.75;;
58384;SDS011;44185;47.844;8.966;2022-12-18T03:40:31;30.70;;;13.25;;
58384;SDS011;44185;47.844;8.966;2022-12-18T03:43:05;34.63;;;12.55;;
58384;SDS011;44185;47.844;8.966;2022-12-18T03:45:41;37.73;;;13.53;;
58384;SDS011;44185;47.844;8.966;2022-12-18T03:48:13;31.80;;;13.18;;
58384;SDS011;44185;47.844;8.966;2022-12-18T03:50:45;33.17;;;14.80;;
58384;SDS011;44185;47.844;8.966;2022-12-18T03:53:17;34.95;;;14.25;;
58384;SDS011;44185;47.844;8.966;2022-12-18T03:55:51;32.28;;;12.60;;
58384;SDS011;44185;47.844;8.966;2022-12-18T03:58:17;36.65;;;14.15;;
58384;SDS011;44185;47.844;8.966;2022-12-18T04:00:50;34.03;;;13.70;;
58384;SDS011;44185;47.844;8.966;2022-12-18T04:03:19;35.92;;;13.27;;
58384;SDS011;44185;47.844;8.966;2022-12-18T04:05:46;39.60;;;12.73;;
58384;SDS011;44185;47.844;8.966;2022-12-18T04:08:15;35.90;;;14.98;;
58384;SDS011;44185;47.844;8.966;2022-12-18T04:10:41;34.10;;;13.43;;
58384;SDS011;44185;47.844;8.966;2022-12-18T04:13:06;41.07;;;14.23;;
58384;SDS011;44185;47.844;8.966;2022-12-18T04:15:32;31.85;;;12.20;;
58384;SDS011;44185;47.844;8.966;2022-12-18T04:18:01;29.45;;;12.25;;
58384;SDS011;44185;47.844;8.966;2022-12-18T04:20:27;35.83;;;13.13;;
58384;SDS011;44185;47.844;8.966;2022-12-18T04:22:52;42.00;;;15.82;;
58384;SDS011;44185;47.844;8.966;2022-12-18T04:25:18;37.03;;;12.85;;
58384;SDS011;44185;47.844;8.966;2022-12-18T04:27:44;38.80;;;13.47;;
58384;SDS011;44185;47.844;8.966;2022-12-18T04:30:10;40.47;;;14.82;;
58384;SDS011;44185;47.844;8.966;2022-12-18T04:32:36;29.85;;;13.50;;
58384;SDS011;44185;47.844;8.966;2022-12-18T04:35:03;33.30;;;12.68;;
58384;SDS011;44185;47.844;8.966;2022-12-18T04:37:29;35.67;;;13.10;;
58384;SDS011;44185;47.844;8.966;2022-12-18T04:39:54;38.97;;;14.13;;
58384;SDS011;44185;47.844;8.966;2022-12-18T04:42:20;38.53;;;12.98;;
58384;SDS011;44185;47.844;8.966;2022-12-18T04:44:45;37.55;;;13.50;;
58384;SDS011;44185;47.844;8.966;2022-12-18T04:47:11;33.95;;;13.50;;
58384;SDS011;44185;47.844;8.966;2022-12-18T04:49:36;32.28;;;13.10;;
58384;SDS011;44185;47.844;8.966;2022-12-18T04:52:03;35.42;;;12.20;;
58384;SDS011;44185;47.844;8.966;2022-12-18T04:54:29;26.63;;;11.15;;
58384;SDS011;44185;47.844;8.966;2022-12-18T04:56:54;34.45;;;11.02;;
58384;SDS011;44185;47.844;8.966;2022-12-18T04:59:20;31.98;;;11.50;;
58384;SDS011;44185;47.844;8.966;2022-12-18T05:01:45;30.05;;;11.02;;
58384;SDS011;44185;47.844;8.966;2022-12-18T05:04:11;29.17;;;10.93;;
58384;SDS011;44185;47.844;8.966;2022-12-18T05:06:36;30.00;;;12.45;;
58384;SDS011;44185;47.844;8.966;2022-12-18T05:09:03;27.55;;;10.10;;
58384;SDS011;44185;47.844;8.966;2022-12-18T05:11:29;30.02;;;9.82;;
58384;SDS011;44185;47.844;8.966;2022-12-18T05:13:57;26.83;;;10.55;;
58384;SDS011;44185;47.844;8.966;2022-12-18T05:16:23;28.92;;;11.38;;
58384;SDS011;44185;47.844;8.966;2022-12-18T05:18:48;34.65;;;10.15;;
58384;SDS011;44185;47.844;8.966;2022-12-18T05:21:14;27.07;;;10.57;;
58384;SDS011;44185;47.844;8.966;2022-12-18T05:23:39;28.83;;;10.63;;
58384;SDS011;44185;47.844;8.966;2022-12-18T05:26:06;27.70;;;11.20;;
58384;SDS011;44185;47.844;8.966;2022-12-18T05:28:32;24.70;;;9.07;;
58384;SDS011;44185;47.844;8.966;2022-12-18T05:31:00;22.57;;;8.87;;
58384;SDS011;44185;47.844;8.966;2022-12-18T05:33:27;25.05;;;9.80;;
58384;SDS011;44185;47.844;8.966;2022-12-18T05:35:55;25.43;;;8.80;;
58384;SDS011;44185;47.844;8.966;2022-12-18T05:38:22;25.27;;;10.53;;
58384;SDS011;44185;47.844;8.966;2022-12-18T05:40:49;25.57;;;9.90;;
58384;SDS011;44185;47.844;8.966;2022-12-18T05:43:16;28.10;;;12.07;;
58384;SDS011;44185;47.844;8.966;2022-12-18T05:45:42;26.00;;;10.17;;
58384;SDS011;44185;47.844;8.966;2022-12-18T05:48:08;22.97;;;9.87;;
58384;SDS011;44185;47.844;8.966;2022-12-18T05:50:38;26.87;;;9.00;;
58384;SDS011;44185;47.844;8.966;2022-12-18T05:53:06;25.57;;;10.50;;
58384;SDS011;44185;47.844;8.966;2022-12-18T05:55:32;25.57;;;9.23;;
58384;SDS011;44185;47.844;8.966;2022-12-18T05:57:59;23.30;;;9.33;;
58384;SDS011;44185;47.844;8.966;2022-12-18T06:00:26;22.90;;;9.73;;
58384;SDS011;44185;47.844;8.966;2022-12-18T06:02:51;26.37;;;8.93;;
58384;SDS011;44185;47.844;8.966;2022-12-18T06:05:16;33.37;;;12.23;;
58384;SDS011;44185;47.844;8.966;2022-12-18T06:07:42;32.40;;;12.73;;
58384;SDS011;44185;47.844;8.966;2022-12-18T06:10:07;17.73;;;9.20;;
58384;SDS011;44185;47.844;8.966;2022-12-18T06:12:33;23.37;;;9.57;;
58384;SDS011;44185;47.844;8.966;2022-12-18T06:14:59;31.65;;;10.88;;
58384;SDS011;44185;47.844;8.966;2022-12-18T06:17:28;32.33;;;12.70;;
58384;SDS011;44185;47.844;8.966;2022-12-18T06:19:54;31.50;;;12.90;;
58384;SDS011;44185;47.844;8.966;2022-12-18T06:22:20;33.33;;;11.93;;
58384;SDS011;44185;47.844;8.966;2022-12-18T06:24:45;33.17;;;13.17;;
58384;SDS011;44185;47.844;8.966;2022-12-18T06:27:11;35.33;;;14.73;;
58384;SDS011;44185;47.844;8.966;2022-12-18T06:29:36;50.40;;;16.80;;
58384;SDS011;44185;47.844;8.966;2022-12-18T06:32:01;47.03;;;17.43;;
58384;SDS011;44185;47.844;8.966;2022-12-18T06:34:31;47.90;;;16.80;;
58384;SDS011;44185;47.844;8.966;2022-12-18T06:36:56;43.88;;;15.82;;
58384;SDS011;44185;47.844;8.966;2022-12-18T06:39:22;45.63;;;17.60;;
58384;SDS011;44185;47.844;8.966;2022-12-18T06:41:47;45.57;;;17.73;;
58384;SDS011;44185;47.844;8.966;2022-12-18T06:44:14;52.50;;;18.47;;
58384;SDS011;44185;47.844;8.966;2022-12-18T06:46:40;40.23;;;16.60;;
58384;SDS011;44185;47.844;8.966;2022-12-18T06:49:05;46.03;;;18.87;;
58384;SDS011;44185;47.844;8.966;2022-12-18T06:51:32;55.40;;;20.20;;
58384;SDS011;44185;47.844;8.966;2022-12-18T06:53:57;48.80;;;19.43;;
58384;SDS011;44185;47.844;8.966;2022-12-18T06:56:23;47.37;;;18.43;;
58384;SDS011;44185;47.844;8.966;2022-12-18T06:58:51;56.10;;;22.10;;
58384;SDS011;44185;47.844;8.966;2022-12-18T07:01:17;45.53;;;16.40;;
58384;SDS011;44185;47.844;8.966;2022-12-18T07:03:42;46.40;;;18.47;;
58384;SDS011;44185;47.844;8.966;2022-12-18T07:06:12;48.37;;;18.07;;
58384;SDS011;44185;47.844;8.966;2022-12-18T07:08:42;42.77;;;17.17;;
58384;SDS011;44185;47.844;8.966;2022-12-18T07:11:08;48.92;;;16.30;;
58384;SDS011;44185;47.844;8.966;2022-12-18T07:13:33;51.13;;;18.17;;
58384;SDS011;44185;47.844;8.966;2022-12-18T07:16:06;25.17;;;12.10;;
58384;SDS011;44185;47.844;8.966;2022-12-18T07:18:33;37.23;;;15.60;;
58384;SDS011;44185;47.844;8.966;2022-12-18T07:21:01;44.67;;;15.93;;
58384;SDS011;44185;47.844;8.966;2022-12-18T07:23:27;41.53;;;16.80;;
58384;SDS011;44185;47.844;8.966;2022-12-18T07:25:54;42.20;;;17.23;;
58384;SDS011;44185;47.844;8.966;2022-12-18T07:28:20;51.57;;;20.00;;
58384;SDS011;44185;47.844;8.966;2022-12-18T07:30:45;58.80;;;23.67;;
58384;SDS011;44185;47.844;8.966;2022-12-18T07:33:11;56.50;;;25.97;;
58384;SDS011;44185;47.844;8.966;2022-12-18T07:35:36;54.53;;;26.33;;
58384;SDS011;44185;47.844;8.966;2022-12-18T07:38:01;58.80;;;25.30;;
58384;SDS011;44185;47.844;8.966;2022-12-18T07:40:27;57.78;;;25.50;;
58384;SDS011;44185;47.844;8.966;2022-12-18T07:42:54;51.95;;;24.38;;
58384;SDS011;44185;47.844;8.966;2022-12-18T07:45:19;50.83;;;21.27;;
58384;SDS011;44185;47.844;8.966;2022-12-18T07:47:45;37.90;;;15.18;;
58384;SDS011;44185;47.844;8.966;2022-12-18T07:50:10;35.57;;;14.60;;
58384;SDS011;44185;47.844;8.966;2022-12-18T07:52:35;36.00;;;15.13;;
58384;SDS011;44185;47.844;8.966;2022-12-18T07:55:01;37.80;;;15.73;;
58384;SDS011;44185;47.844;8.966;2022-12-18T07:57:27;47.45;;;17.48;;
58384;SDS011;44185;47.844;8.966;2022-12-18T07:59:53;43.63;;;16.10;;
58384;SDS011;44185;47.844;8.966;2022-12-18T08:02:19;36.35;;;14.45;;
58384;SDS011;44185;47.844;8.966;2022-12-18T08:04:44;38.15;;;15.13;;
58384;SDS011;44185;47.844;8.966;2022-12-18T08:07:10;35.63;;;15.57;;
58384;SDS011;44185;47.844;8.966;2022-12-18T08:09:35;41.97;;;18.08;;
58384;SDS011;44185;47.844;8.966;2022-12-18T08:12:01;43.60;;;16.90;;
58384;SDS011;44185;47.844;8.966;2022-12-18T08:14:26;45.00;;;19.60;;
58384;SDS011;44185;47.844;8.966;2022-12-18T08:16:53;42.47;;;18.75;;
58384;SDS011;44185;47.844;8.966;2022-12-18T08:19:18;40.33;;;17.80;;
58384;SDS011;44185;47.844;8.966;2022-12-18T08:21:44;35.70;;;14.23;;
58384;SDS011;44185;47.844;8.966;2022-12-18T08:24:09;35.83;;;16.00;;
58384;SDS011;44185;47.844;8.966;2022-12-18T08:26:35;37.72;;;13.55;;
58384;SDS011;44185;47.844;8.966;2022-12-18T08:29:00;39.78;;;14.77;;
58384;SDS011;44185;47.844;8.966;2022-12-18T08:31:27;34.26;;;15.16;;
58384;SDS011;44185;47.844;8.966;2022-12-18T08:33:54;41.58;;;14.25;;
58384;SDS011;44185;47.844;8.966;2022-12-18T08:36:20;36.20;;;14.98;;
58384;SDS011;44185;47.844;8.966;2022-12-18T08:38:46;38.58;;;15.70;;
58384;SDS011;44185;47.844;8.966;2022-12-18T08:41:14;35.15;;;14.10;;
58384;SDS011;44185;47.844;8.966;2022-12-18T08:43:41;35.55;;;14.43;;
58384;SDS011;44185;47.844;8.966;2022-12-18T08:46:07;37.87;;;16.00;;
58384;SDS011;44185;47.844;8.966;2022-12-18T08:48:32;38.33;;;17.02;;
58384;SDS011;44185;47.844;8.966;2022-12-18T08:50:59;32.15;;;14.07;;
58384;SDS011;44185;47.844;8.966;2022-12-18T08:53:25;44.55;;;15.60;;
58384;SDS011;44185;47.844;8.966;2022-12-18T08:55:51;30.70;;;14.38;;
58384;SDS011;44185;47.844;8.966;2022-12-18T08:58:17;40.70;;;13.75;;
58384;SDS011;44185;47.844;8.966;2022-12-18T09:00:43;40.45;;;13.50;;
58384;SDS011;44185;47.844;8.966;2022-12-18T09:03:10;35.58;;;13.38;;
58384;SDS011;44185;47.844;8.966;2022-12-18T09:05:36;27.55;;;12.02;;
58384;SDS011;44185;47.844;8.966;2022-12-18T09:08:03;32.40;;;12.55;;
58384;SDS011;44185;47.844;8.966;2022-12-18T09:10:29;34.45;;;13.55;;
58384;SDS011;44185;47.844;8.966;2022-12-18T09:12:54;32.40;;;13.95;;
58384;SDS011;44185;47.844;8.966;2022-12-18T09:15:20;39.95;;;15.13;;
58384;SDS011;44185;47.844;8.966;2022-12-18T09:17:45;35.22;;;13.85;;
58384;SDS011;44185;47.844;8.966;2022-12-18T09:20:11;35.92;;;14.23;;
58384;SDS011;44185;47.844;8.966;2022-12-18T09:22:36;39.20;;;15.13;;
58384;SDS011;44185;47.844;8.966;2022-12-18T09:25:06;39.70;;;14.37;;
58384;SDS011;44185;47.844;8.966;2022-12-18T09:27:31;36.35;;;12.77;;
58384;SDS011;44185;47.844;8.966;2022-12-18T09:29:57;38.72;;;15.20;;
58384;SDS011;44185;47.844;8.966;2022-12-18T09:32:22;33.00;;;12.13;;
58384;SDS011;44185;47.844;8.966;2022-12-18T09:34:48;42.10;;;15.10;;
58384;SDS011;44185;47.844;8.966;2022-12-18T09:37:14;36.90;;;14.23;;
58384;SDS011;44185;47.844;8.966;2022-12-18T09:39:39;35.00;;;14.68;;
58384;SDS011;44185;47.844;8.966;2022-12-18T09:42:08;29.77;;;13.50;;
58384;SDS011;44185;47.844;8.966;2022-12-18T09:44:45;37.30;;;14.18;;
58384;SDS011;44185;47.844;8.966;2022-12-18T09:47:16;34.33;;;14.00;;
58384;SDS011;44185;47.844;8.966;2022-12-18T09:49:45;37.58;;;13.32;;
58384;SDS011;44185;47.844;8.966;2022-12-18T09:52:14;29.48;;;11.07;;
58384;SDS011;44185;47.844;8.966;2022-12-18T09:54:45;34.03;;;13.05;;
58384;SDS011;44185;47.844;8.966;2022-12-18T09:57:17;38.08;;;15.35;;
58384;SDS011;44185;47.844;8.966;2022-12-18T09:59:46;36.92;;;14.75;;
58384;SDS011;44185;47.844;8.966;2022-12-18T10:02:16;37.30;;;14.23;;
58384;SDS011;44185;47.844;8.966;2022-12-18T10:04:43;37.40;;;13.40;;
58384;SDS011;44185;47.844;8.966;2022-12-18T10:07:12;36.40;;;13.05;;
58384;SDS011;44185;47.844;8.966;2022-12-18T10:09:43;35.70;;;13.65;;
58384;SDS011;44185;47.844;8.966;2022-12-18T10:12:21;36.17;;;15.48;;
58384;SDS011;44185;47.844;8.966;2022-12-18T10:14:54;32.22;;;14.73;;
58384;SDS011;44185;47.844;8.966;2022-12-18T10:17:28;35.72;;;14.63;;
58384;SDS011;44185;47.844;8.966;2022-12-18T10:20:05;41.03;;;16.27;;
58384;SDS011;44185;47.844;8.966;2022-12-18T10:22:40;39.03;;;13.85;;
58384;SDS011;44185;47.844;8.966;2022-12-18T10:25:16;31.55;;;13.15;;
58384;SDS011;44185;47.844;8.966;2022-12-18T10:27:48;42.72;;;18.13;;
58384;SDS011;44185;47.844;8.966;2022-12-18T10:30:20;37.63;;;14.85;;
58384;SDS011;44185;47.844;8.966;2022-12-18T10:32:47;34.38;;;13.13;;
58384;SDS011;44185;47.844;8.966;2022-12-18T10:35:20;31.75;;;13.07;;
58384;SDS011;44185;47.844;8.966;2022-12-18T10:38:00;36.45;;;13.65;;
58384;SDS011;44185;47.844;8.966;2022-12-18T10:40:28;32.55;;;12.85;;
58384;SDS011;44185;47.844;8.966;2022-12-18T10:43:04;37.92;;;15.02;;
58384;SDS011;44185;47.844;8.966;2022-12-18T10:45:30;39.00;;;15.80;;
58384;SDS011;44185;47.844;8.966;2022-12-18T10:47:56;34.47;;;13.77;;
58384;SDS011;44185;47.844;8.966;2022-12-18T10:50:24;33.00;;;13.63;;
58384;SDS011;44185;47.844;8.966;2022-12-18T10:52:57;37.55;;;15.57;;
58384;SDS011;44185;47.844;8.966;2022-12-18T10:55:24;33.75;;;13.95;;
58384;SDS011;44185;47.844;8.966;2022-12-18T10:57:52;36.78;;;13.73;;
58384;SDS011;44185;47.844;8.966;2022-12-18T11:00:27;34.33;;;12.88;;
58384;SDS011;44185;47.844;8.966;2022-12-18T11:02:54;35.38;;;13.68;;
58384;SDS011;44185;47.844;8.966;2022-12-18T11:05:28;34.40;;;13.23;;
58384;SDS011;44185;47.844;8.966;2022-12-18T11:07:54;38.90;;;14.88;;
58384;SDS011;44185;47.844;8.966;2022-12-18T11:10:22;44.63;;;19.17;;
58384;SDS011;44185;47.844;8.966;2022-12-18T11:12:50;30.08;;;13.30;;
58384;SDS011;44185;47.844;8.966;2022-12-18T11:15:19;34.40;;;14.65;;
58384;SDS011;44185;47.844;8.966;2022-12-18T11:17:48;32.85;;;13.57;;
58384;SDS011;44185;47.844;8.966;2022-12-18T11:20:20;32.63;;;13.52;;
58384;SDS011;44185;47.844;8.966;2022-12-18T11:22:55;32.10;;;11.48;;
58384;SDS011;44185;47.844;8.966;2022-12-18T11:25:22;39.58;;;14.20;;
58384;SDS011;44185;47.844;8.966;2022-12-18T11:27:48;31.27;;;12.57;;
58384;SDS011;44185;47.844;8.966;2022-12-18T11:30:21;32.33;;;13.43;;
58384;SDS011;44185;47.844;8.966;2022-12-18T11:32:50;29.40;;;14.38;;
58384;SDS011;44185;47.844;8.966;2022-12-18T11:35:19;35.13;;;13.93;;
58384;SDS011;44185;47.844;8.966;2022-12-18T11:37:50;36.42;;;14.30;;
58384;SDS011;44185;47.844;8.966;2022-12-18T11:40:21;36.10;;;15.18;;
58384;SDS011;44185;47.844;8.966;2022-12-18T11:42:51;36.08;;;13.18;;
58384;SDS011;44185;47.844;8.966;2022-12-18T11:45:25;33.70;;;13.10;;
58384;SDS011;44185;47.844;8.966;2022-12-18T11:47:56;23.15;;;8.93;;
58384;SDS011;44185;47.844;8.966;2022-12-18T11:50:28;20.58;;;8.20;;
58384;SDS011;44185;47.844;8.966;2022-12-18T11:52:59;30.40;;;12.93;;
58384;SDS011;44185;47.844;8.966;2022-12-18T11:55:28;47.83;;;16.13;;
58384;SDS011;44185;47.844;8.966;2022-12-18T11:58:03;34.67;;;13.82;;
58384;SDS011;44185;47.844;8.966;2022-12-18T12:00:38;30.95;;;12.80;;
58384;SDS011;44185;47.844;8.966;2022-12-18T12:03:24;41.40;;;14.18;;
58384;SDS011;44185;47.844;8.966;2022-12-18T12:06:07;36.50;;;13.40;;
58384;SDS011;44185;47.844;8.966;2022-12-18T12:08:45;33.38;;;11.70;;
58384;SDS011;44185;47.844;8.966;2022-12-18T12:11:25;26.38;;;11.25;;
58384;SDS011;44185;47.844;8.966;2022-12-18T12:14:03;35.00;;;12.90;;
58384;SDS011;44185;47.844;8.966;2022-12-18T12:16:42;38.72;;;13.27;;
58384;SDS011;44185;47.844;8.966;2022-12-18T12:19:19;29.75;;;12.30;;
58384;SDS011;44185;47.844;8.966;2022-12-18T12:21:58;32.13;;;12.80;;
58384;SDS011;44185;47.844;8.966;2022-12-18T12:24:39;25.30;;;10.60;;
58384;SDS011;44185;47.844;8.966;2022-12-18T12:27:17;29.88;;;12.13;;
58384;SDS011;44185;47.844;8.966;2022-12-18T12:29:55;34.90;;;13.32;;
58384;SDS011;44185;47.844;8.966;2022-12-18T12:32:31;36.22;;;13.77;;
58384;SDS011;44185;47.844;8.966;2022-12-18T12:35:14;34.00;;;14.05;;
58384;SDS011;44185;47.844;8.966;2022-12-18T12:37:53;32.65;;;12.82;;
58384;SDS011;44185;47.844;8.966;2022-12-18T12:40:28;29.50;;;12.48;;
58384;SDS011;44185;47.844;8.966;2022-12-18T12:42:59;33.90;;;13.60;;
58384;SDS011;44185;47.844;8.966;2022-12-18T12:47:58;22.00;;;10.05;;
58384;SDS011;44185;47.844;8.966;2022-12-18T12:50:28;34.30;;;13.05;;
58384;SDS011;44185;47.844;8.966;2022-12-18T12:52:58;32.00;;;13.13;;
58384;SDS011;44185;47.844;8.966;2022-12-18T12:55:26;37.65;;;12.10;;
58384;SDS011;44185;47.844;8.966;2022-12-18T12:57:55;32.75;;;12.63;;
58384;SDS011;44185;47.844;8.966;2022-12-18T13:00:28;29.48;;;12.90;;
58384;SDS011;44185;47.844;8.966;2022-12-18T13:03:02;33.70;;;14.25;;
58384;SDS011;44185;47.844;8.966;2022-12-18T13:05:38;30.10;;;12.70;;
58384;SDS011;44185;47.844;8.966;2022-12-18T13:08:11;29.98;;;11.98;;
58384;SDS011;44185;47.844;8.966;2022-12-18T13:10:46;34.08;;;14.43;;
58384;SDS011;44185;47.844;8.966;2022-12-18T13:13:12;36.65;;;12.82;;
58384;SDS011;44185;47.844;8.966;2022-12-18T13:15:39;34.70;;;11.85;;
58384;SDS011;44185;47.844;8.966;2022-12-18T13:18:14;33.95;;;13.45;;
58384;SDS011;44185;47.844;8.966;2022-12-18T13:20:46;32.80;;;11.93;;
58384;SDS011;44185;47.844;8.966;2022-12-18T13:23:25;33.30;;;13.10;;
58384;SDS011;44185;47.844;8.966;2022-12-18T13:25:53;35.08;;;12.15;;
58384;SDS011;44185;47.844;8.966;2022-12-18T13:28:20;32.67;;;12.80;;
58384;SDS011;44185;47.844;8.966;2022-12-18T13:30:52;30.88;;;12.63;;
58384;SDS011;44185;47.844;8.966;2022-12-18T13:36:14;31.05;;;13.05;;
58384;SDS011;44185;47.844;8.966;2022-12-18T13:45:00;30.98;;;12.50;;
58384;SDS011;44185;47.844;8.966;2022-12-18T13:47:27;31.10;;;11.98;;
58384;SDS011;44185;47.844;8.966;2022-12-18T13:49:57;23.63;;;10.00;;
58384;SDS011;44185;47.844;8.966;2022-12-18T13:52:25;23.08;;;10.40;;
58384;SDS011;44185;47.844;8.966;2022-12-18T13:54:53;33.30;;;12.73;;
58384;SDS011;44185;47.844;8.966;2022-12-18T13:57:27;32.88;;;13.32;;
58384;SDS011;44185;47.844;8.966;2022-12-18T13:59:53;36.92;;;13.52;;
58384;SDS011;44185;47.844;8.966;2022-12-18T14:02:21;33.92;;;11.90;;
58384;SDS011;44185;47.844;8.966;2022-12-18T14:04:49;34.50;;;12.20;;
58384;SDS011;44185;47.844;8.966;2022-12-18T14:07:16;31.38;;;13.55;;
58384;SDS011;44185;47.844;8.966;2022-12-18T14:09:46;35.22;;;12.32;;
58384;SDS011;44185;47.844;8.966;2022-12-18T14:12:14;37.43;;;14.03;;
58384;SDS011;44185;47.844;8.966;2022-12-18T14:14:42;26.00;;;11.10;;
58384;SDS011;44185;47.844;8.966;2022-12-18T14:17:10;30.42;;;12.70;;
58384;SDS011;44185;47.844;8.966;2022-12-18T14:19:36;33.40;;;13.05;;
58384;SDS011;44185;47.844;8.966;2022-12-18T14:22:09;34.27;;;12.63;;
58384;SDS011;44185;47.844;8.966;2022-12-18T14:24:39;32.90;;;12.73;;
58384;SDS011;44185;47.844;8.966;2022-12-18T14:27:17;32.60;;;11.95;;
58384;SDS011;44185;47.844;8.966;2022-12-18T14:29:46;32.25;;;11.82;;
58384;SDS011;44185;47.844;8.966;2022-12-18T14:32:12;29.23;;;11.88;;
58384;SDS011;44185;47.844;8.966;2022-12-18T14:34:39;30.77;;;12.25;;
58384;SDS011;44185;47.844;8.966;2022-12-18T14:37:04;24.35;;;8.57;;
58384;SDS011;44185;47.844;8.966;2022-12-18T14:39:31;15.50;;;7.63;;
58384;SDS011;44185;47.844;8.966;2022-12-18T14:41:56;36.92;;;14.25;;